createdAt,value
2019-05-02T00:02:01.047Z,2.90
2019-05-02T00:04:33.427Z,2.92
2019-05-02T00:07:07.354Z,3.17
2019-05-02T00:09:48.276Z,3.10
2019-05-02T00:15:38.312Z,3.00
2019-05-02T00:18:11.682Z,3.22
2019-05-02T00:20:43.525Z,2.60
2019-05-02T00:23:22.876Z,2.35
2019-05-02T00:25:52.609Z,2.85
2019-05-02T00:28:25.004Z,2.92
2019-05-02T00:33:55.140Z,2.22
2019-05-02T00:36:25.851Z,2.70
2019-05-02T00:38:56.675Z,2.22
2019-05-02T00:41:27.070Z,2.27
2019-05-02T00:44:17.939Z,2.50
2019-05-02T00:46:48.659Z,2.42
2019-05-02T00:49:19.355Z,2.65
2019-05-02T00:51:50.346Z,2.80
2019-05-02T00:54:24.362Z,2.60
2019-05-02T00:56:53.275Z,2.67
2019-05-02T00:59:24.152Z,2.50
2019-05-02T01:02:00.072Z,2.20
2019-05-02T01:04:30.203Z,2.47
2019-05-02T01:07:00.899Z,2.75
2019-05-02T01:09:32.756Z,2.80
2019-05-02T01:12:08.428Z,2.50
2019-05-02T01:14:36.870Z,2.75
2019-05-02T01:17:07.692Z,2.75
2019-05-02T01:19:38.321Z,2.52
2019-05-02T01:22:10.412Z,2.55
2019-05-02T01:24:41.740Z,2.77
2019-05-02T01:27:36.063Z,2.67
2019-05-02T01:30:12.537Z,2.45
2019-05-02T01:32:53.600Z,2.83
2019-05-02T01:35:26.994Z,2.35
2019-05-02T01:38:15.831Z,2.50
2019-05-02T01:40:52.598Z,2.45
2019-05-02T01:43:24.179Z,2.70
2019-05-02T01:45:55.144Z,2.75
2019-05-02T01:48:26.380Z,2.33
2019-05-02T01:50:57.414Z,2.50
2019-05-02T01:53:29.312Z,2.90
2019-05-02T01:56:00.595Z,2.60
2019-05-02T01:58:31.312Z,2.20
2019-05-02T02:01:02.205Z,1.95
2019-05-02T02:03:32.851Z,2.40
2019-05-02T02:06:07.949Z,2.15
2019-05-02T02:08:36.366Z,2.00
2019-05-02T02:11:09.236Z,2.20
2019-05-02T02:13:40.076Z,2.27
2019-05-02T02:16:10.819Z,1.92
2019-05-02T02:18:49.107Z,1.67
2019-05-02T02:21:33.022Z,2.05
2019-05-02T02:24:21.223Z,1.75
2019-05-02T02:26:53.072Z,1.50
2019-05-02T02:29:23.973Z,2.08
2019-05-02T02:31:54.643Z,1.55
2019-05-02T02:34:29.069Z,1.50
2019-05-02T02:36:57.727Z,1.60
2019-05-02T02:39:28.406Z,1.92
2019-05-02T02:41:59.169Z,1.70
2019-05-02T02:44:41.863Z,1.50
2019-05-02T02:47:18.988Z,1.60
2019-05-02T02:49:45.191Z,1.87
2019-05-02T02:52:15.874Z,1.65
2019-05-02T02:54:46.559Z,2.12
2019-05-02T02:57:25.830Z,2.05
2019-05-02T02:59:49.609Z,1.70
2019-05-02T03:02:20.665Z,1.65
2019-05-02T03:04:51.620Z,1.90
2019-05-02T03:07:33.328Z,1.92
2019-05-02T03:10:06.230Z,2.27
2019-05-02T03:12:46.781Z,1.75
2019-05-02T03:15:21.047Z,1.90
2019-05-02T03:18:02.548Z,1.72
2019-05-02T03:20:39.529Z,1.80
2019-05-02T03:23:05.111Z,1.80
2019-05-02T03:25:49.846Z,1.80
2019-05-02T03:28:17.885Z,2.00
2019-05-02T03:30:39.925Z,2.40
2019-05-02T03:33:12.133Z,1.70
2019-05-02T03:35:48.385Z,1.92
2019-05-02T03:38:14.400Z,1.85
2019-05-02T03:40:44.808Z,2.20
2019-05-02T03:43:19.249Z,1.90
2019-05-02T03:45:47.296Z,1.80
2019-05-02T03:48:18.165Z,2.35
2019-05-02T03:50:50.502Z,2.02
2019-05-02T03:53:24.954Z,2.12
2019-05-02T03:55:54.070Z,2.00
2019-05-02T03:58:24.757Z,2.25
2019-05-02T04:01:01.345Z,2.40
2019-05-02T04:03:33.804Z,2.00
2019-05-02T04:05:59.633Z,2.08
2019-05-02T04:08:30.716Z,2.00
2019-05-02T04:11:18.669Z,1.85
2019-05-02T04:13:49.503Z,1.90
2019-05-02T04:16:20.202Z,1.87
2019-05-02T04:18:55.764Z,1.75
2019-05-02T04:21:25.941Z,1.92
2019-05-02T04:24:07.596Z,2.20
2019-05-02T04:26:27.740Z,2.35
2019-05-02T04:28:58.721Z,1.95
2019-05-02T04:31:31.400Z,2.00
2019-05-02T04:34:01.401Z,1.98
2019-05-02T04:36:31.873Z,2.10
2019-05-02T04:39:05.654Z,2.50
2019-05-02T04:41:34.477Z,2.35
2019-05-02T04:44:05.072Z,2.27
2019-05-02T04:46:38.581Z,1.90
2019-05-02T04:49:09.163Z,1.80
2019-05-02T04:51:39.396Z,2.12
2019-05-02T04:54:21.392Z,2.45
2019-05-02T04:56:49.542Z,2.40
2019-05-02T04:59:17.921Z,1.98
2019-05-02T05:01:52.589Z,2.35
2019-05-02T05:04:18.025Z,1.75
2019-05-02T05:06:56.229Z,2.45
2019-05-02T05:12:38.072Z,2.08
2019-05-02T05:15:13.388Z,2.52
2019-05-02T05:17:40.928Z,2.22
2019-05-02T05:20:15.496Z,2.40
2019-05-02T05:25:17.767Z,2.33
2019-05-02T05:30:15.649Z,2.20
2019-05-02T05:32:45.108Z,2.55
2019-05-02T05:35:17.566Z,2.30
2019-05-02T05:37:51.526Z,2.30
2019-05-02T05:40:22.657Z,2.52
2019-05-02T05:42:51.461Z,2.37
2019-05-02T05:45:21.848Z,2.33
2019-05-02T05:47:56.868Z,1.60
2019-05-02T05:50:24.547Z,2.20
2019-05-02T05:52:55.245Z,1.95
2019-05-02T05:55:28.016Z,1.92
2019-05-02T05:58:01.371Z,2.12
2019-05-02T06:00:30.009Z,2.30
2019-05-02T06:03:10.299Z,2.35
2019-05-02T06:05:33.271Z,2.47
2019-05-02T06:08:04.603Z,2.72
2019-05-02T06:10:39.026Z,2.92
2019-05-02T06:13:10.883Z,3.08
2019-05-02T06:15:40.371Z,2.50
2019-05-02T06:18:10.994Z,2.85
2019-05-02T06:20:41.468Z,2.77
2019-05-02T06:23:12.008Z,3.05
2019-05-02T06:25:42.878Z,3.00
2019-05-02T06:28:13.488Z,3.25
2019-05-02T06:30:44.543Z,2.67
2019-05-02T06:33:14.930Z,2.52
2019-05-02T06:35:45.331Z,2.60
2019-05-02T06:38:16.154Z,2.87
2019-05-02T06:40:46.681Z,2.80
2019-05-02T06:43:17.586Z,2.92
2019-05-02T06:45:48.439Z,3.25
2019-05-02T06:48:19.094Z,2.75
2019-05-02T06:50:49.614Z,3.02
2019-05-02T06:53:20.178Z,2.62
2019-05-02T06:55:50.580Z,2.75
2019-05-02T06:58:20.973Z,2.85
2019-05-02T07:00:58.152Z,2.17
2019-05-02T07:03:23.423Z,2.90
2019-05-02T07:05:58.552Z,2.40
2019-05-02T07:08:25.847Z,2.25
2019-05-02T07:11:01.128Z,2.15
2019-05-02T07:13:28.650Z,2.10
2019-05-02T07:16:03.315Z,2.87
2019-05-02T07:18:42.091Z,2.72
2019-05-02T07:21:17.794Z,2.50
2019-05-02T07:23:48.563Z,2.40
2019-05-02T07:26:22.910Z,2.37
2019-05-02T07:28:50.967Z,2.72
2019-05-02T07:31:21.400Z,2.45
2019-05-02T07:33:52.338Z,2.45
2019-05-02T07:36:22.736Z,2.55
2019-05-02T07:38:57.525Z,2.45
2019-05-02T07:41:29.070Z,2.30
2019-05-02T07:43:57.536Z,2.40
2019-05-02T07:46:28.134Z,2.25
2019-05-02T07:48:58.694Z,2.62
2019-05-02T07:51:29.082Z,2.60
2019-05-02T07:53:59.471Z,2.35
2019-05-02T07:56:30.012Z,2.45
2019-05-02T07:59:00.386Z,2.40
2019-05-02T08:01:30.778Z,2.50
2019-05-02T08:04:04.432Z,2.02
2019-05-02T08:06:35.407Z,2.60
2019-05-02T08:09:07.230Z,2.25
2019-05-02T08:11:38.561Z,2.35
2019-05-02T08:14:09.922Z,2.12
2019-05-02T08:16:40.825Z,2.17
2019-05-02T08:19:11.230Z,2.60
2019-05-02T08:21:41.632Z,2.70
2019-05-02T08:24:12.482Z,2.25
2019-05-02T08:26:44.368Z,2.70
2019-05-02T08:29:14.976Z,2.17
2019-05-02T08:31:45.533Z,2.15
2019-05-02T08:34:17.405Z,2.00
2019-05-02T08:36:48.349Z,2.60
2019-05-02T08:39:18.896Z,2.00
2019-05-02T08:41:51.191Z,2.35
2019-05-02T08:44:21.526Z,2.45
2019-05-02T08:46:53.312Z,2.22
2019-05-02T08:49:23.958Z,2.65
2019-05-02T08:51:54.747Z,3.10
2019-05-02T08:54:28.065Z,2.60
2019-05-02T08:56:58.897Z,2.67
2019-05-02T08:59:29.474Z,2.90
2019-05-02T09:01:59.866Z,2.62
2019-05-02T09:04:30.810Z,3.40
2019-05-02T09:07:01.717Z,2.98
2019-05-02T09:09:32.964Z,3.10
2019-05-02T09:12:12.230Z,3.40
2019-05-02T09:14:37.431Z,2.70
2019-05-02T09:17:13.571Z,2.40
2019-05-02T09:20:03.486Z,2.35
2019-05-02T09:22:32.770Z,2.25
2019-05-02T09:25:03.689Z,2.40
2019-05-02T09:27:34.349Z,2.10
2019-05-02T09:30:06.442Z,2.50
2019-05-02T09:32:37.366Z,2.40
2019-05-02T09:35:11.782Z,2.33
2019-05-02T09:37:43.239Z,3.17
2019-05-02T09:40:16.643Z,3.05
2019-05-02T09:42:47.618Z,2.58
2019-05-02T09:45:19.757Z,3.08
2019-05-02T09:47:57.263Z,2.47
2019-05-02T09:50:29.670Z,2.62
2019-05-02T09:52:54.541Z,2.33
2019-05-02T09:55:25.501Z,2.50
2019-05-02T09:57:56.215Z,2.35
2019-05-02T10:00:36.270Z,2.62
2019-05-02T10:03:05.525Z,2.55
2019-05-02T10:05:35.915Z,3.20
2019-05-02T10:08:08.098Z,3.15
2019-05-02T10:10:42.738Z,3.85
2019-05-02T10:13:12.180Z,5.00
2019-05-02T10:15:52.692Z,5.45
2019-05-02T10:40:33.340Z,1.98
2019-05-02T10:43:06.721Z,1.80
2019-05-02T10:45:38.093Z,2.10
2019-05-02T10:48:21.839Z,2.50
2019-05-02T10:50:42.389Z,2.37
2019-05-02T10:53:15.629Z,1.95
2019-05-02T10:55:44.843Z,1.87
2019-05-02T10:58:15.464Z,2.05
2019-05-02T11:00:45.854Z,2.00
2019-05-02T11:03:22.526Z,2.17
2019-05-02T11:05:57.955Z,1.80
2019-05-02T11:08:28.618Z,2.00
2019-05-02T11:10:59.053Z,1.82
2019-05-02T11:13:40.223Z,1.60
2019-05-02T11:16:32.169Z,1.85
2019-05-02T11:19:08.682Z,2.30
2019-05-02T11:21:46.754Z,2.17
2019-05-02T11:24:14.210Z,3.27
2019-05-02T11:26:44.575Z,2.70
2019-05-02T11:29:15.300Z,2.30
2019-05-02T11:31:46.176Z,2.20
2019-05-02T11:34:17.046Z,2.40
2019-05-02T11:39:52.591Z,2.70
2019-05-02T11:42:23.218Z,3.37
2019-05-02T11:44:53.021Z,3.00
2019-05-02T11:47:26.577Z,2.90
2019-05-02T11:49:56.104Z,3.17
2019-05-02T11:52:27.488Z,3.90
2019-05-02T11:54:58.932Z,3.87
2019-05-02T11:57:31.202Z,4.42
2019-05-02T12:00:04.951Z,4.80
2019-05-02T12:02:37.543Z,4.10
2019-05-02T12:05:26.537Z,3.22
2019-05-02T12:08:02.593Z,3.20
2019-05-02T12:10:34.807Z,3.92
2019-05-02T12:13:06.493Z,3.70
2019-05-02T12:15:34.754Z,3.15
2019-05-02T12:18:06.050Z,3.65
2019-05-02T12:20:36.928Z,2.87
2019-05-02T12:23:09.189Z,3.22
2019-05-02T12:25:39.934Z,3.10
2019-05-02T12:28:12.120Z,3.37
2019-05-02T12:30:42.912Z,3.00
2019-05-02T12:36:42.728Z,2.85
2019-05-02T12:39:14.965Z,3.10
2019-05-02T12:41:47.865Z,3.52
2019-05-02T12:44:19.667Z,3.37
2019-05-02T12:46:51.812Z,2.85
2019-05-02T12:49:27.508Z,3.70
2019-05-02T12:51:54.825Z,3.60
2019-05-02T12:54:25.484Z,3.10
2019-05-02T12:56:56.371Z,2.80
2019-05-02T12:59:26.955Z,2.80
2019-05-02T13:02:00.213Z,2.98
2019-05-02T13:04:32.264Z,3.10
2019-05-02T13:07:02.953Z,2.70
2019-05-02T13:12:24.220Z,2.77
2019-05-02T13:14:54.861Z,3.35
2019-05-02T13:17:56.761Z,3.90
2019-05-02T13:20:29.423Z,3.62
2019-05-02T13:23:07.441Z,3.62
2019-05-02T13:25:38.152Z,3.17
2019-05-02T13:28:09.440Z,3.87
2019-05-02T13:30:53.535Z,3.67
2019-05-02T13:33:27.384Z,3.42
2019-05-02T13:35:59.897Z,3.10
2019-05-02T13:38:30.557Z,2.90
2019-05-02T13:41:02.605Z,2.50
2019-05-02T13:43:35.348Z,2.70
2019-05-02T13:46:15.408Z,2.08
2019-05-02T13:48:46.072Z,1.92
2019-05-02T13:51:18.531Z,2.17
2019-05-02T13:53:53.913Z,2.33
2019-05-02T13:56:25.992Z,1.90
2019-05-02T13:58:56.657Z,2.67
2019-05-02T14:01:27.427Z,2.80
2019-05-02T14:04:05.504Z,2.90
2019-05-02T14:06:37.965Z,3.08
2019-05-02T14:09:22.594Z,2.98
2019-05-02T14:12:11.837Z,2.90
2019-05-02T14:14:42.667Z,2.95
2019-05-02T14:17:13.443Z,2.67
2019-05-02T14:19:45.585Z,2.58
2019-05-02T14:22:18.321Z,2.77
2019-05-02T14:24:48.974Z,2.08
2019-05-02T14:27:20.112Z,2.85
2019-05-02T14:29:52.382Z,2.20
2019-05-02T14:32:26.294Z,2.70
2019-05-02T14:34:56.532Z,2.25
2019-05-02T14:37:27.210Z,2.35
2019-05-02T14:40:02.102Z,2.10
2019-05-02T14:42:32.914Z,2.35
2019-05-02T14:45:13.166Z,2.37
2019-05-02T14:47:36.181Z,2.58
2019-05-02T14:50:20.778Z,2.58
2019-05-02T14:52:51.769Z,2.60
2019-05-02T14:55:25.638Z,2.50
2019-05-02T14:57:57.103Z,2.55
2019-05-02T15:06:03.050Z,2.60
2019-05-02T15:08:36.674Z,2.62
2019-05-02T15:11:07.750Z,2.45
2019-05-02T15:13:41.025Z,2.72
2019-05-02T15:16:17.551Z,2.83
2019-05-02T15:18:47.708Z,2.77
2019-05-02T15:21:20.217Z,2.45
2019-05-02T15:23:54.370Z,2.65
2019-05-02T15:26:26.381Z,2.25
2019-05-02T15:29:06.494Z,2.42
2019-05-02T15:31:42.139Z,2.33
2019-05-02T15:34:14.534Z,2.70
2019-05-02T15:36:45.961Z,2.60
2019-05-02T15:41:48.905Z,3.33
2019-05-02T15:44:23.383Z,3.08
2019-05-02T15:46:53.675Z,2.90
2019-05-02T15:49:24.524Z,3.30
2019-05-02T15:51:55.311Z,3.25
2019-05-02T15:54:26.172Z,3.35
2019-05-02T15:57:02.885Z,3.47
2019-05-02T15:59:37.738Z,3.40
2019-05-02T16:02:22.971Z,2.75
2019-05-02T16:04:52.129Z,2.77
2019-05-02T16:07:23.909Z,2.40
2019-05-02T16:09:59.318Z,2.40
2019-05-02T16:12:27.072Z,2.00
2019-05-02T16:14:59.127Z,2.17
2019-05-02T16:17:30.151Z,1.75
2019-05-02T16:20:09.225Z,1.52
2019-05-02T16:22:38.323Z,2.17
2019-05-02T16:25:09.341Z,2.00
2019-05-02T16:27:47.119Z,2.17
2019-05-02T16:30:22.369Z,1.75
2019-05-02T16:32:54.954Z,2.05
2019-05-02T16:35:27.155Z,2.10
2019-05-02T16:38:22.111Z,2.30
2019-05-02T16:40:52.782Z,1.90
2019-05-02T16:43:24.783Z,2.25
2019-05-02T16:45:56.359Z,2.40
2019-05-02T16:48:32.386Z,2.05
2019-05-02T16:51:00.330Z,2.10
2019-05-02T16:53:33.404Z,2.40
2019-05-02T16:56:07.008Z,2.17
2019-05-02T16:58:37.946Z,2.10
2019-05-02T17:01:08.693Z,2.60
2019-05-02T17:03:39.262Z,2.40
2019-05-02T17:06:12.295Z,1.75
2019-05-02T17:09:04.274Z,2.30
2019-05-02T17:11:36.593Z,1.90
2019-05-02T17:14:12.085Z,2.27
2019-05-02T17:16:39.782Z,1.80
2019-05-02T17:19:12.247Z,2.20
2019-05-02T17:21:52.770Z,1.92
2019-05-02T17:24:17.431Z,2.00
2019-05-02T17:26:51.837Z,1.98
2019-05-02T17:29:22.894Z,2.05
2019-05-02T17:31:57.418Z,2.40
2019-05-02T17:34:30.809Z,2.10
2019-05-02T17:36:59.101Z,1.87
2019-05-02T17:39:30.152Z,1.98
2019-05-02T17:42:02.616Z,1.80
2019-05-02T17:44:32.911Z,1.92
2019-05-02T17:47:03.468Z,1.90
2019-05-02T17:49:36.629Z,1.60
2019-05-02T17:52:19.737Z,1.82
2019-05-02T17:55:06.440Z,2.00
2019-05-02T17:57:37.129Z,1.42
2019-05-02T18:00:16.681Z,1.62
2019-05-02T18:02:46.907Z,2.00
2019-05-02T18:05:17.520Z,1.60
2019-05-02T18:07:48.239Z,1.45
2019-05-02T18:10:22.437Z,1.77
2019-05-02T18:12:56.650Z,1.72
2019-05-02T18:15:23.092Z,1.72
2019-05-02T18:17:59.708Z,1.72
2019-05-02T18:20:28.244Z,1.80
2019-05-02T18:22:58.946Z,1.72
2019-05-02T18:25:29.662Z,1.80
2019-05-02T18:28:02.265Z,1.57
2019-05-02T18:30:32.684Z,1.27
2019-05-02T18:33:07.054Z,1.30
2019-05-02T18:35:37.315Z,1.45
2019-05-02T18:38:07.951Z,1.50
2019-05-02T18:40:38.675Z,1.52
2019-05-02T18:43:10.168Z,1.40
2019-05-02T18:45:42.467Z,1.50
2019-05-02T18:48:13.048Z,1.40
2019-05-02T18:50:47.602Z,1.42
2019-05-02T18:53:18.624Z,1.62
2019-05-02T18:55:51.707Z,1.65
2019-05-02T18:58:22.557Z,1.70
2019-05-02T19:00:53.389Z,1.65
2019-05-02T19:03:24.148Z,1.40
2019-05-02T19:05:57.168Z,1.70
2019-05-02T19:08:30.875Z,1.70
2019-05-02T19:11:07.596Z,1.42
2019-05-02T19:13:32.790Z,1.30
2019-05-02T19:16:03.127Z,1.65
2019-05-02T19:18:33.593Z,1.25
2019-05-02T19:21:04.725Z,1.50
2019-05-02T19:23:36.288Z,1.77
2019-05-02T19:26:15.006Z,1.70
2019-05-02T19:28:44.996Z,1.47
2019-05-02T19:34:09.049Z,1.65
2019-05-02T19:36:41.649Z,1.90
2019-05-02T19:39:12.062Z,2.10
2019-05-02T19:41:43.881Z,2.08
2019-05-02T19:44:15.358Z,2.00
2019-05-02T19:46:46.271Z,1.70
2019-05-02T19:49:16.969Z,1.70
2019-05-02T19:51:50.471Z,1.70
2019-05-02T19:54:21.728Z,1.55
2019-05-02T19:56:52.324Z,1.35
2019-05-02T19:59:26.332Z,1.65
2019-05-02T20:01:57.020Z,1.40
2019-05-02T20:04:28.588Z,1.72
2019-05-02T20:06:59.086Z,1.60
2019-05-02T20:09:31.557Z,2.20
2019-05-02T20:12:07.642Z,1.80
2019-05-02T20:14:38.097Z,1.50
2019-05-02T20:17:08.435Z,2.10
2019-05-02T20:19:42.133Z,1.70
2019-05-02T20:22:14.069Z,2.15
2019-05-02T20:24:55.242Z,2.10
2019-05-02T20:27:27.931Z,2.15
2019-05-02T20:29:57.757Z,2.27
2019-05-02T20:32:28.291Z,2.20
2019-05-02T20:34:59.002Z,2.22
2019-05-02T20:37:29.791Z,2.10
2019-05-02T20:40:02.612Z,2.37
2019-05-02T20:42:32.654Z,2.50
2019-05-02T20:45:03.365Z,2.00
2019-05-02T20:47:34.056Z,2.02
2019-05-02T20:50:05.967Z,1.90
2019-05-02T20:52:37.171Z,2.05
2019-05-02T20:55:08.664Z,2.25
2019-05-02T20:57:39.312Z,2.20
2019-05-02T21:00:12.721Z,1.80
2019-05-02T21:02:43.523Z,1.82
2019-05-02T21:05:16.979Z,1.80
2019-05-02T21:07:49.280Z,2.10
2019-05-02T21:10:21.868Z,1.80
2019-05-02T21:12:52.727Z,2.00
2019-05-02T21:15:23.525Z,2.00
2019-05-02T21:17:54.173Z,1.77
2019-05-02T21:20:27.423Z,2.10
2019-05-02T21:22:57.985Z,2.00
2019-05-02T21:25:28.594Z,2.50
2019-05-02T21:27:59.373Z,2.12
2019-05-02T21:30:32.130Z,2.60
2019-05-02T21:33:03.052Z,2.72
2019-05-02T21:35:33.822Z,2.12
2019-05-02T21:38:04.461Z,2.90
2019-05-02T21:40:35.036Z,3.00
2019-05-02T21:43:05.858Z,3.17
2019-05-02T21:45:36.712Z,4.00
2019-05-02T21:48:07.422Z,4.15
2019-05-02T21:50:51.993Z,3.80
2019-05-02T21:53:27.203Z,3.77
2019-05-02T21:55:59.289Z,3.58
2019-05-02T21:58:30.000Z,3.77
2019-05-02T22:01:04.011Z,3.90
2019-05-02T22:03:35.030Z,4.03
2019-05-02T22:06:05.980Z,3.62
2019-05-02T22:08:36.684Z,3.72
2019-05-02T22:11:07.345Z,4.17
2019-05-02T22:13:39.296Z,3.60
2019-05-02T22:16:10.052Z,4.37
2019-05-02T22:18:42.614Z,4.00
2019-05-02T22:21:12.946Z,3.95
2019-05-02T22:23:43.633Z,3.95
2019-05-02T22:26:14.328Z,3.95
2019-05-02T22:28:45.489Z,4.03
2019-05-02T22:31:16.240Z,3.65
2019-05-02T22:33:47.313Z,4.47
2019-05-02T22:36:18.096Z,4.15
2019-05-02T22:38:53.050Z,3.90
2019-05-02T22:41:23.872Z,4.28
2019-05-02T22:43:54.543Z,4.30
2019-05-02T22:46:44.794Z,4.30
2019-05-02T22:49:16.453Z,4.10
2019-05-02T22:51:47.093Z,4.92
2019-05-02T22:54:26.982Z,4.20
2019-05-02T22:56:52.086Z,4.17
2019-05-02T22:59:23.938Z,4.28
2019-05-02T23:01:54.944Z,4.60
2019-05-02T23:04:25.785Z,4.60
2019-05-02T23:06:56.510Z,4.50
2019-05-02T23:09:27.152Z,4.25
2019-05-02T23:11:57.965Z,4.72
2019-05-02T23:14:28.663Z,5.10
2019-05-02T23:16:59.532Z,4.72
2019-05-02T23:19:31.693Z,4.80
2019-05-02T23:22:21.911Z,4.37
2019-05-02T23:24:56.997Z,5.00
2019-05-02T23:27:47.869Z,4.40
2019-05-02T23:30:22.571Z,5.33
2019-05-02T23:32:55.273Z,4.87
2019-05-02T23:35:32.016Z,4.50
2019-05-02T23:38:04.769Z,4.30
2019-05-02T23:40:36.742Z,4.70
2019-05-02T23:43:07.233Z,5.25
2019-05-02T23:45:37.676Z,4.62
2019-05-02T23:48:09.971Z,5.05
2019-05-02T23:50:40.013Z,5.15
2019-05-02T23:53:12.716Z,5.20
2019-05-02T23:55:43.354Z,4.47
2019-05-02T23:58:14.491Z,4.58
